Andrew, Iowa
Current Conditions -  °F | °C
As of 5:53 PM on Friday 24 Oct 2014 (Local Time) from KDBQ Reporting Station
Overcast Overcast  
Wind Chill: 63°   Ceiling: 2800
Heat Index: 63°   Visibility: 10mi
Dew Point: 54°   Wind: 13mph
Humidity: 72%   Direction: 230°SW
Pressure: 29.91"   Gusts: NA
Location:  42.15°N, 90.59°W
Report Text: KDBQ 242253Z 23011KT 10SM OVC028 17/12 A2991 RMK AO2 SLP130 T01720122
Loading
Personal Weather Stations






























Interactive Weather Map
Tropical Storm Tracking
New forecast layout! Learn more

10-Day Weather Forecast

Advertisements
Track Severe Weather on mobile